createdAt,value
2023-04-20T00:02:15.610Z,6.90
2023-04-20T00:04:42.642Z,6.90
2023-04-20T00:07:09.719Z,6.90
2023-04-20T00:09:36.520Z,7.00
2023-04-20T00:12:03.223Z,7.00
2023-04-20T00:14:29.970Z,7.00
2023-04-20T00:16:56.717Z,6.90
2023-04-20T00:19:24.005Z,6.90
2023-04-20T00:21:50.723Z,6.90
2023-04-20T00:24:17.476Z,6.90
2023-04-20T00:26:44.219Z,6.80
2023-04-20T00:29:11.286Z,6.90
2023-04-20T00:31:37.976Z,6.80
2023-04-20T00:34:04.996Z,6.90
2023-04-20T00:36:31.658Z,6.90
2023-04-20T00:38:58.851Z,6.90
2023-04-20T00:41:25.482Z,6.90
2023-04-20T00:43:55.492Z,6.90
2023-04-20T00:46:22.547Z,6.90
2023-04-20T00:48:53.898Z,6.90
2023-04-20T00:51:22.447Z,6.90
2023-04-20T00:53:49.208Z,6.90
2023-04-20T00:56:19.503Z,6.90
2023-04-20T00:58:46.898Z,6.90
2023-04-20T01:01:17.681Z,6.90
2023-04-20T01:03:45.823Z,6.80
2023-04-20T01:06:16.000Z,6.80
2023-04-20T01:08:51.055Z,6.80
2023-04-20T01:11:18.297Z,6.80
2023-04-20T01:13:45.144Z,6.70
2023-04-20T01:16:12.827Z,6.80
2023-04-20T01:18:48.319Z,6.70
2023-04-20T01:21:17.362Z,6.80
2023-04-20T01:23:44.981Z,6.80
2023-04-20T01:26:14.513Z,6.80
2023-04-20T01:28:41.375Z,6.80
2023-04-20T01:31:09.153Z,6.80
2023-04-20T01:33:36.426Z,6.80
2023-04-20T01:36:04.938Z,6.80
2023-04-20T01:38:32.977Z,6.80
2023-04-20T01:41:00.101Z,6.80
2023-04-20T01:43:27.571Z,6.80
2023-04-20T01:45:54.292Z,6.80
2023-04-20T01:48:21.000Z,6.80
2023-04-20T01:50:51.613Z,6.80
2023-04-20T01:53:18.811Z,6.80
2023-04-20T01:55:45.704Z,6.80
2023-04-20T01:58:12.410Z,6.70
2023-04-20T02:00:39.261Z,6.70
2023-04-20T02:03:06.511Z,6.70
2023-04-20T02:05:33.396Z,6.80
2023-04-20T02:08:00.046Z,6.70
2023-04-20T02:10:26.800Z,6.80
2023-04-20T02:12:53.437Z,6.80
2023-04-20T02:15:20.189Z,6.80
2023-04-20T02:17:47.162Z,6.70
2023-04-20T02:20:14.708Z,6.70
2023-04-20T02:22:41.376Z,6.70
2023-04-20T02:25:09.126Z,6.60
2023-04-20T02:27:35.863Z,6.70
2023-04-20T02:30:02.608Z,6.70
2023-04-20T02:32:29.307Z,6.70
2023-04-20T02:34:56.048Z,6.70
2023-04-20T02:37:22.738Z,6.80
2023-04-20T02:39:49.626Z,6.80
2023-04-20T02:42:16.505Z,6.80
2023-04-20T02:44:43.196Z,6.80
2023-04-20T02:47:09.852Z,6.80
2023-04-20T02:49:37.040Z,6.70
2023-04-20T02:52:03.794Z,6.70
2023-04-20T02:54:30.507Z,6.60
2023-04-20T02:56:58.707Z,6.60
2023-04-20T02:59:25.392Z,6.60
2023-04-20T03:01:52.140Z,6.60
2023-04-20T03:04:19.399Z,6.70
2023-04-20T03:06:46.545Z,6.60
2023-04-20T03:09:13.287Z,6.60
2023-04-20T03:11:39.928Z,6.60
2023-04-20T03:14:06.776Z,6.60
2023-04-20T03:16:33.504Z,6.60
2023-04-20T03:19:00.185Z,6.60
2023-04-20T03:21:26.832Z,6.60
2023-04-20T03:23:53.755Z,6.60
2023-04-20T03:26:20.476Z,6.60
2023-04-20T03:28:47.132Z,6.60
2023-04-20T03:31:13.889Z,6.60
2023-04-20T03:33:40.643Z,6.60
2023-04-20T03:36:07.672Z,6.60
2023-04-20T03:38:34.330Z,6.60
2023-04-20T03:41:01.345Z,6.60
2023-04-20T03:43:28.014Z,6.70
2023-04-20T03:45:55.696Z,6.60
2023-04-20T03:48:22.399Z,6.70
2023-04-20T03:50:49.079Z,6.70
2023-04-20T03:53:15.779Z,6.70
2023-04-20T03:55:42.415Z,6.70
2023-04-20T03:58:09.305Z,6.70
2023-04-20T04:00:36.010Z,6.70
2023-04-20T04:03:02.774Z,6.70
2023-04-20T04:05:29.635Z,6.70
2023-04-20T04:07:56.288Z,6.70
2023-04-20T04:10:23.069Z,6.70
2023-04-20T04:12:49.693Z,6.70
2023-04-20T04:15:16.402Z,6.70
2023-04-20T04:17:43.079Z,6.70
2023-04-20T04:20:11.534Z,6.60
2023-04-20T04:22:38.402Z,6.60
2023-04-20T04:25:05.770Z,6.60
2023-04-20T04:27:34.892Z,6.70
2023-04-20T04:30:02.708Z,6.60
2023-04-20T04:32:29.425Z,6.60
2023-04-20T04:34:56.324Z,6.60
2023-04-20T04:37:23.081Z,6.60
2023-04-20T04:39:51.118Z,6.60
2023-04-20T04:42:17.767Z,6.60
2023-04-20T04:44:44.987Z,6.60
2023-04-20T04:47:14.502Z,6.60
2023-04-20T04:49:41.213Z,6.60
2023-04-20T04:52:08.939Z,6.60
2023-04-20T04:54:35.690Z,6.60
2023-04-20T04:57:02.899Z,6.60
2023-04-20T04:59:29.626Z,6.60
2023-04-20T05:01:56.403Z,6.70
2023-04-20T05:04:23.230Z,6.60
2023-04-20T05:06:50.029Z,6.60
2023-04-20T05:09:16.969Z,6.70
2023-04-20T05:11:43.814Z,6.70
2023-04-20T05:14:10.633Z,6.70
2023-04-20T05:16:37.336Z,6.70
2023-04-20T05:19:04.102Z,6.70
2023-04-20T05:21:30.925Z,6.70
2023-04-20T05:23:57.576Z,6.70
2023-04-20T05:26:24.238Z,6.70
2023-04-20T05:28:51.353Z,6.80
2023-04-20T05:31:18.053Z,6.70
2023-04-20T05:33:44.782Z,6.70
2023-04-20T05:36:11.479Z,6.70
2023-04-20T05:38:38.435Z,6.70
2023-04-20T05:41:05.435Z,6.80
2023-04-20T05:43:32.179Z,6.70
2023-04-20T05:45:59.059Z,6.80
2023-04-20T05:48:29.892Z,6.70
2023-04-20T05:50:56.895Z,6.70
2023-04-20T05:53:23.569Z,6.70
2023-04-20T05:55:50.245Z,6.80
2023-04-20T05:58:17.365Z,6.80
2023-04-20T06:00:44.464Z,6.80
2023-04-20T06:03:11.513Z,6.80
2023-04-20T06:05:38.403Z,6.80
2023-04-20T06:08:05.160Z,6.80
2023-04-20T06:10:34.259Z,6.80
2023-04-20T06:13:01.258Z,6.70
2023-04-20T06:15:28.113Z,6.80
2023-04-20T06:17:54.986Z,6.80
2023-04-20T06:20:22.040Z,6.80
2023-04-20T06:22:49.021Z,6.80
2023-04-20T06:25:16.007Z,6.80
2023-04-20T06:27:42.822Z,6.80
2023-04-20T06:30:10.101Z,6.90
2023-04-20T06:32:37.873Z,6.90
2023-04-20T06:35:06.274Z,6.80
2023-04-20T06:37:33.279Z,6.80
2023-04-20T06:39:59.936Z,6.90
2023-04-20T06:42:27.186Z,6.90
2023-04-20T06:44:53.939Z,6.90
2023-04-20T06:47:20.803Z,6.80
2023-04-20T06:49:47.565Z,6.80
2023-04-20T06:52:14.217Z,6.80
2023-04-20T06:54:40.904Z,6.80
2023-04-20T06:57:07.590Z,6.80
2023-04-20T06:59:34.358Z,6.80
2023-04-20T07:02:01.657Z,6.90
2023-04-20T07:04:28.508Z,6.80
2023-04-20T07:06:55.350Z,6.90
2023-04-20T07:09:23.120Z,6.90
2023-04-20T07:11:49.995Z,6.90
2023-04-20T07:14:16.832Z,6.90
2023-04-20T07:16:43.589Z,6.90
2023-04-20T07:19:10.425Z,7.00
2023-04-20T07:21:37.331Z,6.90
2023-04-20T07:24:04.194Z,6.90
2023-04-20T07:26:31.168Z,6.90
2023-04-20T07:28:57.877Z,6.80
2023-04-20T07:31:24.655Z,6.80
2023-04-20T07:33:51.575Z,6.90
2023-04-20T07:36:18.342Z,6.90
2023-04-20T07:38:45.215Z,6.90
2023-04-20T07:41:11.998Z,6.90
2023-04-20T07:43:41.537Z,6.90
2023-04-20T07:46:08.347Z,7.00
2023-04-20T07:48:35.285Z,7.00
2023-04-20T07:51:02.241Z,6.90
2023-04-20T07:53:29.679Z,7.00
2023-04-20T07:55:56.367Z,7.00
2023-04-20T07:58:23.063Z,7.10
2023-04-20T08:00:49.840Z,7.10
2023-04-20T08:03:16.933Z,7.10
2023-04-20T08:05:43.985Z,7.10
2023-04-20T08:08:10.805Z,7.20
2023-04-20T08:10:37.512Z,7.10
2023-04-20T08:13:04.343Z,7.10
2023-04-20T08:15:31.635Z,7.00
2023-04-20T08:17:58.932Z,7.00
2023-04-20T08:20:25.715Z,6.90
2023-04-20T08:22:53.281Z,7.00
2023-04-20T08:25:20.382Z,7.00
2023-04-20T08:27:47.283Z,6.90
2023-04-20T08:30:14.167Z,7.00
2023-04-20T08:32:41.182Z,7.10
2023-04-20T08:35:08.708Z,7.00
2023-04-20T08:37:35.725Z,7.00
2023-04-20T08:40:02.383Z,7.00
2023-04-20T08:42:29.104Z,7.10
2023-04-20T08:44:55.758Z,7.10
2023-04-20T08:47:22.840Z,7.10
2023-04-20T08:49:53.232Z,7.20
2023-04-20T08:52:20.011Z,7.30
2023-04-20T08:54:56.158Z,7.30
2023-04-20T08:57:25.252Z,7.30
2023-04-20T08:59:52.084Z,7.30
2023-04-20T09:02:18.872Z,7.30
2023-04-20T09:04:49.134Z,7.30
2023-04-20T09:07:21.133Z,7.30
2023-04-20T09:09:58.690Z,7.30
2023-04-20T09:12:25.785Z,7.20
2023-04-20T09:14:53.694Z,7.20
2023-04-20T09:17:36.113Z,7.10
2023-04-20T09:20:05.068Z,7.10
2023-04-20T09:22:34.039Z,7.10
2023-04-20T09:25:11.943Z,7.10
2023-04-20T09:27:38.686Z,7.20
2023-04-20T09:30:06.695Z,7.20
2023-04-20T09:32:33.849Z,7.30
2023-04-20T09:35:00.525Z,7.30
2023-04-20T09:37:27.393Z,7.30
2023-04-20T09:40:00.265Z,7.30
2023-04-20T09:42:28.814Z,7.50
2023-04-20T09:44:56.929Z,7.50
2023-04-20T09:47:26.014Z,7.50
2023-04-20T09:49:54.056Z,7.40
2023-04-20T09:52:21.053Z,7.40
2023-04-20T09:54:48.180Z,7.40
2023-04-20T09:57:15.199Z,7.30
2023-04-20T09:59:46.981Z,7.30
2023-04-20T10:02:14.423Z,7.00
2023-04-20T10:04:54.724Z,6.90
2023-04-20T10:07:28.964Z,7.00
2023-04-20T10:10:16.172Z,7.00
2023-04-20T10:12:54.260Z,7.00
2023-04-20T10:15:21.949Z,7.10
2023-04-20T10:17:49.457Z,7.20
2023-04-20T10:20:23.749Z,7.30
2023-04-20T10:23:06.540Z,7.30
2023-04-20T10:25:33.315Z,7.40
2023-04-20T10:28:04.596Z,7.40
2023-04-20T10:30:32.477Z,7.40
2023-04-20T10:33:12.740Z,7.40
2023-04-20T10:35:55.041Z,7.30
2023-04-20T10:38:32.741Z,7.30
2023-04-20T10:41:07.230Z,7.30
2023-04-20T10:43:35.461Z,7.30
2023-04-20T10:46:02.398Z,7.30
2023-04-20T10:48:29.237Z,7.40
2023-04-20T10:50:56.290Z,7.50
2023-04-20T10:53:24.061Z,7.60
2023-04-20T10:56:00.710Z,7.50
2023-04-20T10:58:27.836Z,7.50
2023-04-20T11:01:01.967Z,7.50
2023-04-20T11:03:30.931Z,7.40
2023-04-20T11:06:01.717Z,7.50
2023-04-20T11:08:39.864Z,7.50
2023-04-20T11:11:21.054Z,7.70
2023-04-20T11:13:48.578Z,7.70
2023-04-20T11:16:17.744Z,7.60
2023-04-20T11:18:53.580Z,7.60
2023-04-20T11:21:21.764Z,7.70
2023-04-20T11:23:49.627Z,7.70
2023-04-20T11:26:17.099Z,7.70
2023-04-20T11:28:55.965Z,7.60
2023-04-20T11:31:23.473Z,7.60
2023-04-20T11:33:50.451Z,7.70
2023-04-20T11:36:24.703Z,7.70
2023-04-20T11:38:51.494Z,7.80
2023-04-20T11:41:18.705Z,7.80
2023-04-20T11:43:46.289Z,7.90
2023-04-20T11:46:18.218Z,7.90
2023-04-20T11:48:46.243Z,7.90
2023-04-20T11:51:13.503Z,8.00
2023-04-20T11:53:40.870Z,8.10
2023-04-20T11:56:08.699Z,8.20
2023-04-20T11:58:36.298Z,8.30
2023-04-20T12:01:03.154Z,8.30
2023-04-20T12:03:30.143Z,8.30
2023-04-20T12:05:57.068Z,8.30
2023-04-20T12:08:24.838Z,8.30
2023-04-20T12:10:51.580Z,8.30
2023-04-20T12:13:18.334Z,8.40
2023-04-20T12:15:45.259Z,8.40
2023-04-20T12:18:12.088Z,8.40
2023-04-20T12:20:38.861Z,8.50
2023-04-20T12:23:05.568Z,8.40
2023-04-20T12:25:32.335Z,8.40
2023-04-20T12:27:59.083Z,8.30
2023-04-20T12:30:26.013Z,8.30
2023-04-20T12:32:52.779Z,8.20
2023-04-20T12:35:20.713Z,8.40
2023-04-20T12:37:47.467Z,8.30
2023-04-20T12:40:14.335Z,8.40
2023-04-20T12:42:41.055Z,8.40
2023-04-20T12:45:08.374Z,8.30
2023-04-20T12:47:35.106Z,8.30
2023-04-20T12:50:02.141Z,8.30
2023-04-20T12:52:29.385Z,8.20
2023-04-20T12:54:56.075Z,8.10
2023-04-20T12:57:22.746Z,8.10
2023-04-20T12:59:49.390Z,8.10
2023-04-20T13:02:17.642Z,8.00
2023-04-20T13:04:45.493Z,8.10
2023-04-20T13:07:12.282Z,8.00
2023-04-20T13:09:39.166Z,8.00
2023-04-20T13:12:06.066Z,8.00
2023-04-20T13:14:32.851Z,7.80
2023-04-20T13:17:01.917Z,7.80
2023-04-20T13:19:30.411Z,7.80
2023-04-20T13:21:57.608Z,7.70
2023-04-20T13:24:24.318Z,7.80
2023-04-20T13:26:53.166Z,7.70
2023-04-20T13:29:20.110Z,7.80
2023-04-20T13:31:48.387Z,7.70
2023-04-20T13:34:15.493Z,7.70
2023-04-20T13:36:42.615Z,7.70
2023-04-20T13:39:10.784Z,7.80
2023-04-20T13:41:37.901Z,7.80
2023-04-20T13:44:05.198Z,7.90
2023-04-20T13:46:32.294Z,7.90
2023-04-20T13:48:58.979Z,7.80
2023-04-20T13:51:27.270Z,7.80
2023-04-20T13:53:53.916Z,7.90
2023-04-20T13:56:21.032Z,7.80
2023-04-20T13:58:47.688Z,7.70
2023-04-20T14:01:17.879Z,7.70
2023-04-20T14:03:44.899Z,7.70
2023-04-20T14:06:11.725Z,7.70
2023-04-20T14:08:38.654Z,7.80
2023-04-20T14:11:05.502Z,7.80
2023-04-20T14:13:32.379Z,7.80
2023-04-20T14:15:59.088Z,7.70
2023-04-20T14:18:25.799Z,7.70
2023-04-20T14:20:52.575Z,7.70
2023-04-20T14:23:19.786Z,7.60
2023-04-20T14:25:46.488Z,7.70
2023-04-20T14:28:15.083Z,7.70
2023-04-20T14:30:43.150Z,7.70
2023-04-20T14:33:09.806Z,7.70
2023-04-20T14:35:37.215Z,7.60
2023-04-20T14:38:04.081Z,7.60
2023-04-20T14:40:31.783Z,7.60
2023-04-20T14:42:58.508Z,7.50
2023-04-20T14:45:25.314Z,7.60
2023-04-20T14:47:56.982Z,7.50
2023-04-20T14:50:27.516Z,7.50
2023-04-20T14:52:55.228Z,7.60
2023-04-20T14:55:24.616Z,7.60
2023-04-20T14:57:57.040Z,7.50
2023-04-20T15:00:30.044Z,7.60
2023-04-20T15:02:57.443Z,7.70
2023-04-20T15:05:27.919Z,7.70
2023-04-20T15:07:54.718Z,7.60
2023-04-20T15:10:21.798Z,7.60
2023-04-20T15:12:49.046Z,7.70
2023-04-20T15:15:16.702Z,7.60
2023-04-20T15:17:44.635Z,7.60
2023-04-20T15:20:11.839Z,7.70
2023-04-20T15:22:38.725Z,7.70
2023-04-20T15:25:06.242Z,7.70
2023-04-20T15:27:34.219Z,7.80
2023-04-20T15:30:00.919Z,7.80
2023-04-20T15:32:30.068Z,7.80
2023-04-20T15:34:57.230Z,7.80
2023-04-20T15:37:23.918Z,7.70
2023-04-20T15:39:51.432Z,7.70
2023-04-20T15:42:18.738Z,7.70
2023-04-20T15:44:45.577Z,7.80
2023-04-20T15:47:12.256Z,7.70
2023-04-20T15:49:40.654Z,7.80
2023-04-20T15:52:11.276Z,7.80
2023-04-20T15:54:38.347Z,7.80
2023-04-20T15:57:05.490Z,7.80
2023-04-20T15:59:32.549Z,7.80
2023-04-20T16:01:59.358Z,7.80
2023-04-20T16:04:26.246Z,7.80
2023-04-20T16:06:59.354Z,7.80
2023-04-20T16:09:26.062Z,7.80
2023-04-20T16:11:52.796Z,7.80
2023-04-20T16:14:19.740Z,7.80
2023-04-20T16:16:46.646Z,7.90
2023-04-20T16:19:14.579Z,7.80
2023-04-20T16:21:41.304Z,7.90
2023-04-20T16:24:08.198Z,7.90
2023-04-20T16:26:34.908Z,7.80
2023-04-20T16:29:01.726Z,7.80
2023-04-20T16:31:29.605Z,7.80
2023-04-20T16:33:57.274Z,7.80
2023-04-20T16:36:25.326Z,7.80
2023-04-20T16:38:52.122Z,7.80
2023-04-20T16:41:18.819Z,7.80
2023-04-20T16:43:45.718Z,7.80
2023-04-20T16:46:13.921Z,7.80
2023-04-20T16:48:40.712Z,7.90
2023-04-20T16:51:07.451Z,7.80
2023-04-20T16:53:34.864Z,7.80
2023-04-20T16:56:01.638Z,7.60
2023-04-20T16:58:28.297Z,7.50
2023-04-20T17:00:55.028Z,7.30
2023-04-20T17:03:22.005Z,7.30
2023-04-20T17:05:49.182Z,7.30
2023-04-20T17:08:15.883Z,7.30
2023-04-20T17:10:42.604Z,7.50
2023-04-20T17:13:09.441Z,7.50
2023-04-20T17:15:36.723Z,7.50
2023-04-20T17:18:04.545Z,7.50
2023-04-20T17:20:31.327Z,7.60
2023-04-20T17:22:58.048Z,7.60
2023-04-20T17:25:24.755Z,7.60
2023-04-20T17:27:51.468Z,7.60
2023-04-20T17:30:18.611Z,7.60
2023-04-20T17:32:45.283Z,7.60
2023-04-20T17:35:11.972Z,7.50
2023-04-20T17:37:38.717Z,7.50
2023-04-20T17:40:06.291Z,7.50
2023-04-20T17:42:33.115Z,7.60
2023-04-20T17:44:59.858Z,7.50
2023-04-20T17:47:28.389Z,7.50
2023-04-20T17:49:56.178Z,7.50
2023-04-20T17:52:22.943Z,7.50
2023-04-20T17:54:49.994Z,7.50
2023-04-20T17:57:16.690Z,7.50
2023-04-20T17:59:43.402Z,7.40
2023-04-20T18:02:11.844Z,7.40
2023-04-20T18:04:39.123Z,7.40
2023-04-20T18:07:06.038Z,7.30
2023-04-20T18:09:32.853Z,7.30
2023-04-20T18:11:59.514Z,7.30
2023-04-20T18:14:26.196Z,7.20
2023-04-20T18:16:54.866Z,7.20
2023-04-20T18:19:21.602Z,7.20
2023-04-20T18:21:48.288Z,7.20
2023-04-20T18:24:14.992Z,7.20
2023-04-20T18:26:41.725Z,7.20
2023-04-20T18:29:08.393Z,7.20
2023-04-20T18:31:35.260Z,7.20
2023-04-20T18:34:01.963Z,7.20
2023-04-20T18:36:29.780Z,7.30
2023-04-20T18:38:57.352Z,7.30
2023-04-20T18:41:25.672Z,7.30
2023-04-20T18:43:56.602Z,7.40
2023-04-20T18:46:23.423Z,7.40
2023-04-20T18:48:50.107Z,7.30
2023-04-20T18:51:16.852Z,7.30
2023-04-20T18:53:43.533Z,7.30
2023-04-20T18:56:10.437Z,7.30
2023-04-20T18:58:37.101Z,7.30
2023-04-20T19:01:04.381Z,7.30
2023-04-20T19:03:32.182Z,7.30
2023-04-20T19:05:59.255Z,7.30
2023-04-20T19:08:25.937Z,7.30
2023-04-20T19:10:56.398Z,7.30
2023-04-20T19:13:23.607Z,7.30
2023-04-20T19:15:50.758Z,7.40
2023-04-20T19:18:17.419Z,7.40
2023-04-20T19:20:44.146Z,7.50
2023-04-20T19:23:11.079Z,7.50
2023-04-20T19:25:38.127Z,7.50
2023-04-20T19:28:08.016Z,7.50
2023-04-20T19:30:35.604Z,7.40
2023-04-20T19:33:04.914Z,7.40
2023-04-20T19:35:32.300Z,7.50
2023-04-20T19:37:59.859Z,7.40
2023-04-20T19:40:27.371Z,7.40
2023-04-20T19:42:54.136Z,7.50
2023-04-20T19:45:20.958Z,7.50
2023-04-20T19:47:47.728Z,7.50
2023-04-20T19:50:14.772Z,7.50
2023-04-20T19:52:41.659Z,7.50
2023-04-20T19:55:08.677Z,7.50
2023-04-20T19:57:35.393Z,7.50
2023-04-20T20:00:02.188Z,7.50
2023-04-20T20:02:29.055Z,7.50
2023-04-20T20:04:55.776Z,7.50
2023-04-20T20:07:22.442Z,7.40
2023-04-20T20:09:49.107Z,7.40
2023-04-20T20:12:16.447Z,7.40
2023-04-20T20:14:43.090Z,7.40
2023-04-20T20:17:09.775Z,7.40
2023-04-20T20:19:36.419Z,7.30
2023-04-20T20:22:03.119Z,7.30
2023-04-20T20:28:16.989Z,7.30
2023-04-20T20:30:45.306Z,7.20
2023-04-20T20:33:12.650Z,7.20
2023-04-20T20:35:39.920Z,7.30
2023-04-20T20:38:08.011Z,7.30
2023-04-20T20:40:35.440Z,7.30
2023-04-20T20:43:02.598Z,7.40
2023-04-20T20:45:30.228Z,7.40
2023-04-20T20:47:57.227Z,7.40
2023-04-20T20:50:24.474Z,7.40
2023-04-20T20:52:51.146Z,7.40
2023-04-20T20:55:17.955Z,7.40
2023-04-20T20:57:45.956Z,7.40
2023-04-20T21:00:13.799Z,7.40
2023-04-20T21:02:40.637Z,7.30
2023-04-20T21:05:07.714Z,7.30
2023-04-20T21:07:34.463Z,7.20
2023-04-20T21:10:01.267Z,7.10
2023-04-20T21:12:27.924Z,7.10
2023-04-20T21:14:54.668Z,7.10
2023-04-20T21:17:21.443Z,7.00
2023-04-20T21:19:48.117Z,7.00
2023-04-20T21:22:14.803Z,6.90
2023-04-20T21:24:41.479Z,7.00
2023-04-20T21:27:08.371Z,6.90
2023-04-20T21:29:35.051Z,6.80
2023-04-20T21:32:01.826Z,6.80
2023-04-20T21:34:28.627Z,6.80
2023-04-20T21:36:55.497Z,6.80
2023-04-20T21:39:22.183Z,6.90
2023-04-20T21:41:48.881Z,6.80
2023-04-20T21:44:15.570Z,6.90
2023-04-20T21:46:42.307Z,6.80
2023-04-20T21:49:09.000Z,6.80
2023-04-20T21:51:35.658Z,6.90
2023-04-20T21:54:02.338Z,6.90
2023-04-20T21:56:29.059Z,6.90
2023-04-20T21:58:55.723Z,6.90
2023-04-20T22:01:22.538Z,6.90
2023-04-20T22:03:49.459Z,6.90
2023-04-20T22:06:16.249Z,6.90
2023-04-20T22:08:43.069Z,6.90
2023-04-20T22:11:09.918Z,6.90
2023-04-20T22:13:36.876Z,6.90
2023-04-20T22:16:04.114Z,6.90
2023-04-20T22:18:31.030Z,6.90
2023-04-20T22:20:57.966Z,6.90
2023-04-20T22:23:24.653Z,6.90
2023-04-20T22:25:51.365Z,6.90
2023-04-20T22:28:18.054Z,6.90
2023-04-20T22:30:44.742Z,6.90
2023-04-20T22:33:11.440Z,6.90
2023-04-20T22:35:38.112Z,6.90
2023-04-20T22:38:04.796Z,6.90
2023-04-20T22:40:31.521Z,7.00
2023-04-20T22:42:58.225Z,7.00
2023-04-20T22:45:24.964Z,7.00
2023-04-20T22:47:51.716Z,7.00
2023-04-20T22:50:18.650Z,7.10
2023-04-20T22:52:46.092Z,7.10
2023-04-20T22:55:12.866Z,7.10
2023-04-20T22:57:39.700Z,7.10
2023-04-20T23:00:10.356Z,7.10
2023-04-20T23:02:37.866Z,7.10
2023-04-20T23:05:05.710Z,7.10
2023-04-20T23:07:33.229Z,7.10
2023-04-20T23:10:00.529Z,7.10
2023-04-20T23:12:29.460Z,7.10
2023-04-20T23:15:00.503Z,7.10
2023-04-20T23:17:28.535Z,7.20
2023-04-20T23:19:56.214Z,7.10
2023-04-20T23:22:23.226Z,7.10
2023-04-20T23:24:50.402Z,7.20
2023-04-20T23:27:17.325Z,7.10
2023-04-20T23:29:44.048Z,7.20
2023-04-20T23:32:10.872Z,7.20
2023-04-20T23:34:37.684Z,7.20
2023-04-20T23:37:04.427Z,7.10
2023-04-20T23:39:31.121Z,7.10
2023-04-20T23:41:58.143Z,7.10
2023-04-20T23:44:24.858Z,7.10
2023-04-20T23:46:51.518Z,7.10
2023-04-20T23:49:18.545Z,7.10
2023-04-20T23:51:45.537Z,7.10
2023-04-20T23:54:12.202Z,7.10
2023-04-20T23:56:38.905Z,7.10
2023-04-20T23:59:05.770Z,7.10
